TimeCST,TemperatureF,Dew PointF,Humidity,Sea Level PressureIn,VisibilityMPH,Wind Direction,Wind SpeedMPH,Gust SpeedMPH,PrecipitationIn,Events,Conditions,WindDirDegrees,DateUTC
12:53 AM,46.0,35.1,66,30.27,10.0,NNW,12.7,-,N/A,,Overcast,340,2013-01-16 06:53:00
1:53 AM,46.4,33.8,62,30.28,10.0,NNW,19.6,26.5,N/A,,Overcast,340,2013-01-16 07:53:00
2:53 AM,45.0,30.0,56,30.30,10.0,NNW,18.4,26.5,N/A,,Overcast,340,2013-01-16 08:53:00
3:53 AM,45.0,28.0,52,30.31,10.0,NW,13.8,-,N/A,,Overcast,320,2013-01-16 09:53:00
4:53 AM,45.0,28.0,52,30.32,10.0,NNW,10.4,-,N/A,,Overcast,330,2013-01-16 10:53:00
5:53 AM,42.1,28.9,60,30.34,10.0,NW,15.0,20.7,N/A,,Scattered Clouds,310,2013-01-16 11:53:00
6:53 AM,41.0,27.0,57,30.37,10.0,NW,11.5,-,N/A,,Scattered Clouds,320,2013-01-16 12:53:00
7:53 AM,41.0,26.1,55,30.39,10.0,NW,8.1,-,N/A,,Clear,320,2013-01-16 13:53:00
8:53 AM,44.1,25.0,47,30.40,10.0,NNW,11.5,-,N/A,,Clear,330,2013-01-16 14:53:00
9:53 AM,48.9,21.9,35,30.41,10.0,NNW,18.4,24.2,N/A,,Clear,340,2013-01-16 15:53:00
10:53 AM,51.1,21.9,32,30.40,10.0,NNW,15.0,23.0,N/A,,Clear,340,2013-01-16 16:53:00
11:53 AM,55.0,21.9,28,30.36,10.0,North,17.3,25.3,N/A,,Clear,350,2013-01-16 17:53:00
12:53 PM,57.9,21.9,25,30.32,10.0,NNW,17.3,24.2,N/A,,Clear,330,2013-01-16 18:53:00
1:53 PM,60.1,18.0,20,30.27,10.0,NW,20.7,31.1,N/A,,Clear,320,2013-01-16 19:53:00
2:53 PM,60.1,19.0,20,30.26,10.0,NNW,19.6,28.8,N/A,,Clear,330,2013-01-16 20:53:00
3:53 PM,60.1,15.1,17,30.25,10.0,NW,19.6,25.3,N/A,,Clear,310,2013-01-16 21:53:00
4:53 PM,59.0,17.1,20,30.26,10.0,WNW,12.7,19.6,N/A,,Clear,300,2013-01-16 22:53:00
5:53 PM,57.9,10.9,16,30.28,10.0,NW,9.2,-,N/A,,Clear,310,2013-01-16 23:53:00
6:53 PM,54.0,14.0,21,30.31,10.0,NW,4.6,-,N/A,,Clear,310,2013-01-17 00:53:00
7:53 PM,48.9,21.9,35,30.33,10.0,WNW,3.5,-,N/A,,Clear,290,2013-01-17 01:53:00
8:53 PM,46.0,28.9,51,30.34,10.0,Calm,Calm,-,N/A,,Clear,0,2013-01-17 02:53:00
9:53 PM,48.9,19.0,31,30.33,10.0,North,5.8,-,N/A,,Clear,10,2013-01-17 03:53:00
10:53 PM,46.9,21.0,36,30.34,10.0,Calm,Calm,-,N/A,,Clear,0,2013-01-17 04:53:00
11:53 PM,45.0,24.1,44,30.35,10.0,Calm,Calm,-,N/A,,Clear,0,2013-01-17 05:53:00